Time;durP1;ratioP1;P1;durP2;ratioP2;P2;SDS_P1;SDS_P2;PMS_P1;PMS_P2;Temp;Humidity;BMP_temperature;BMP_pressure;BME280_temperature;BME280_humidity;BME280_pressure;Samples;Min_cycle;Max_cycle;Signal;HPM_P1;HPM_P2
2021/10/01 00:01:04;;;;;;;2.03;1.77;;;;;;;11.60;55.99;97386.94;5084138;28;20212;-66
2021/10/01 00:03:29;;;;;;;1.93;1.60;;;;;;;11.61;55.60;97385.97;5091644;28;20182;-67
2021/10/01 00:05:55;;;;;;;4.57;2.20;;;;;;;11.50;56.16;97380.00;5090592;28;20197;-67
2021/10/01 00:08:20;;;;;;;3.00;1.70;;;;;;;11.56;55.84;97377.75;5090979;28;20181;-68
2021/10/01 00:10:46;;;;;;;2.73;1.77;;;;;;;11.40;56.59;97374.03;5091254;28;20181;-67
2021/10/01 00:13:11;;;;;;;2.10;1.87;;;;;;;11.44;56.72;97383.25;5090708;28;20178;-67
2021/10/01 00:15:37;;;;;;;1.83;1.53;;;;;;;11.56;56.23;97383.00;5091263;28;20205;-67
2021/10/01 00:18:04;;;;;;;3.37;1.90;;;;;;;11.60;56.11;97379.91;5090719;28;20655;-67
2021/10/01 00:20:29;;;;;;;3.77;1.93;;;;;;;11.59;55.91;97377.44;5091297;28;20276;-68
2021/10/01 00:22:55;;;;;;;4.50;2.20;;;;;;;11.54;56.41;97370.00;5090215;28;20431;-67
2021/10/01 00:25:21;;;;;;;7.57;2.00;;;;;;;11.51;56.53;97360.66;5090345;28;20209;-67
2021/10/01 00:27:46;;;;;;;5.53;2.70;;;;;;;11.55;56.27;97365.59;5090916;28;20181;-68
2021/10/01 00:30:12;;;;;;;3.50;2.00;;;;;;;11.52;56.66;97362.31;5088542;28;20178;-67
2021/10/01 00:32:37;;;;;;;5.80;1.30;;;;;;;11.52;56.59;97357.06;5085173;28;20407;-68
2021/10/01 00:35:04;;;;;;;5.13;1.97;;;;;;;11.51;56.45;97358.03;5090895;28;20284;-69
2021/10/01 00:37:29;;;;;;;2.37;2.07;;;;;;;11.53;56.41;97352.63;5090786;28;20197;-68
2021/10/01 00:39:55;;;;;;;6.10;2.10;;;;;;;11.51;56.46;97350.16;5090387;28;20427;-67
2021/10/01 00:42:21;;;;;;;9.67;1.80;;;;;;;11.52;56.40;97343.13;5091049;28;20235;-67
2021/10/01 00:44:46;;;;;;;2.60;1.70;;;;;;;11.52;56.45;97340.50;5085287;28;20297;-67
2021/10/01 00:47:12;;;;;;;6.77;2.00;;;;;;;11.51;56.62;97337.03;5090725;28;20189;-68
2021/10/01 00:49:38;;;;;;;5.93;1.70;;;;;;;11.49;56.71;97338.16;5090181;28;20586;-67
2021/10/01 00:52:06;;;;;;;3.60;1.50;;;;;;;11.50;56.55;97343.25;5090671;28;20254;-68
2021/10/01 00:54:31;;;;;;;1.87;1.57;;;;;;;11.55;56.41;97339.34;5090194;28;20463;-68
2021/10/01 00:56:58;;;;;;;3.20;1.60;;;;;;;11.52;56.74;97341.31;5094639;28;20494;-68
2021/10/01 00:59:23;;;;;;;2.50;1.60;;;;;;;11.51;56.60;97336.22;5094552;28;20263;-68
2021/10/01 01:01:49;;;;;;;2.73;1.43;;;;;;;11.49;56.60;97335.53;5086431;28;20427;-68
2021/10/01 01:04:16;;;;;;;2.50;1.53;;;;;;;11.43;56.78;97339.63;5094314;28;20197;-67
2021/10/01 01:06:54;;;;;;;3.10;1.50;;;;;;;11.47;56.97;97327.81;5093327;28;20641;-67
2021/10/01 01:10:08;;;;;;;3.00;1.70;;;;;;;11.49;56.73;97320.59;5091680;28;20454;-68
2021/10/01 01:12:49;;;;;;;2.53;1.50;;;;;;;11.45;56.79;97314.03;5091875;28;20427;-68
2021/10/01 01:15:21;;;;;;;2.00;1.80;;;;;;;11.47;56.95;97314.69;5085795;28;20554;-67
2021/10/01 01:17:57;;;;;;;5.43;1.83;;;;;;;11.43;57.34;97310.75;5092553;28;20431;-67
2021/10/01 01:20:32;;;;;;;2.50;1.40;;;;;;;11.44;56.97;97309.78;5094402;28;20511;-68
2021/10/01 01:23:22;;;;;;;2.57;1.67;;;;;;;11.39;57.50;97303.34;5095113;28;20472;-68
2021/10/01 01:25:57;;;;;;;5.77;1.80;;;;;;;11.39;57.57;97309.41;5094565;28;20459;-67
2021/10/01 01:28:28;;;;;;;2.90;1.60;;;;;;;11.33;57.85;97299.53;5092999;28;21076;-67
2021/10/01 01:30:56;;;;;;;7.60;2.10;;;;;;;11.39;57.53;97298.09;5087384;28;20429;-67
2021/10/01 01:33:22;;;;;;;6.23;1.90;;;;;;;11.34;57.53;97296.75;5093043;28;20477;-68
2021/10/01 01:35:51;;;;;;;2.47;1.80;;;;;;;11.37;57.69;97295.59;5092966;28;20904;-67
2021/10/01 01:38:22;;;;;;;2.90;1.87;;;;;;;11.36;57.94;97293.97;5075114;28;20481;-68
2021/10/01 01:40:50;;;;;;;3.60;1.50;;;;;;;11.31;57.98;97286.56;5093132;28;20432;-69
2021/10/01 01:43:16;;;;;;;3.20;1.77;;;;;;;11.33;57.91;97278.53;5093270;28;20428;-66
2021/10/01 01:45:42;;;;;;;2.50;1.53;;;;;;;11.28;57.91;97276.38;5094066;28;20446;-67
2021/10/01 01:48:09;;;;;;;3.83;1.60;;;;;;;11.30;57.86;97278.84;5092399;28;20178;-66
2021/10/01 01:50:35;;;;;;;3.67;1.50;;;;;;;11.32;57.69;97279.53;5094196;28;20431;-66
2021/10/01 01:53:01;;;;;;;2.00;1.73;;;;;;;11.25;57.99;97279.31;5092738;28;21003;-67
2021/10/01 01:55:28;;;;;;;2.17;1.50;;;;;;;11.22;58.18;97269.13;5092848;28;20463;-68
2021/10/01 01:57:53;;;;;;;5.03;1.70;;;;;;;11.24;58.05;97264.56;5091692;28;20432;-66
2021/10/01 02:00:20;;;;;;;2.00;1.70;;;;;;;11.22;57.96;97264.69;5089747;28;20876;-67
2021/10/01 02:02:47;;;;;;;5.13;1.53;;;;;;;11.25;58.10;97260.13;5089132;28;20731;-67
2021/10/01 02:05:13;;;;;;;3.47;1.47;;;;;;;11.25;57.97;97255.72;5092677;28;20427;-66
2021/10/01 02:07:40;;;;;;;1.40;1.30;;;;;;;11.16;58.44;97257.44;5092988;28;20432;-66
2021/10/01 02:10:06;;;;;;;5.40;2.03;;;;;;;11.20;58.29;97258.81;5092948;28;20435;-67
2021/10/01 02:12:33;;;;;;;6.67;1.80;;;;;;;11.22;58.20;97256.00;5093322;28;20991;-67
2021/10/01 02:14:59;;;;;;;5.83;1.70;;;;;;;11.25;58.13;97247.84;5093617;28;20518;-67
2021/10/01 02:17:26;;;;;;;2.20;1.63;;;;;;;11.20;58.29;97243.06;5090920;28;20458;-67
2021/10/01 02:19:54;;;;;;;4.60;1.87;;;;;;;11.26;58.15;97246.88;5092987;28;20423;-68
2021/10/01 02:22:20;;;;;;;2.10;1.70;;;;;;;11.28;57.92;97239.63;5091122;28;20848;-69
2021/10/01 02:24:46;;;;;;;2.03;1.60;;;;;;;11.25;58.36;97236.50;5093690;28;20452;-69
2021/10/01 02:27:24;;;;;;;4.80;1.90;;;;;;;11.28;58.15;97237.00;5093354;28;20481;-67
2021/10/01 02:30:00;;;;;;;3.77;1.47;;;;;;;11.25;58.13;97232.09;5091613;28;20916;-67
2021/10/01 02:32:31;;;;;;;6.63;1.67;;;;;;;11.28;58.09;97226.50;5085267;28;20445;-68
2021/10/01 02:34:57;;;;;;;4.03;1.70;;;;;;;11.30;57.92;97221.13;5092837;28;20450;-67
2021/10/01 02:37:23;;;;;;;1.90;1.40;;;;;;;11.32;57.95;97216.56;5090074;28;20468;-66
2021/10/01 02:39:51;;;;;;;4.97;1.73;;;;;;;11.29;57.94;97219.47;5092927;28;20420;-66
2021/10/01 02:42:18;;;;;;;2.67;1.80;;;;;;;11.32;57.80;97213.94;5088857;28;20273;-69
2021/10/01 02:44:45;;;;;;;3.20;1.67;;;;;;;11.36;57.80;97212.63;5092734;28;20489;-67
2021/10/01 02:47:12;;;;;;;3.07;1.70;;;;;;;11.30;57.77;97210.63;5092528;28;20428;-66
2021/10/01 02:49:40;;;;;;;3.23;1.60;;;;;;;11.31;57.95;97212.28;5093228;28;20448;-67
2021/10/01 02:52:20;;;;;;;2.83;2.10;;;;;;;11.25;58.02;97215.53;5076523;28;20428;-67
2021/10/01 02:54:53;;;;;;;2.33;1.63;;;;;;;11.21;58.34;97213.19;5109551;28;20447;-67
2021/10/01 02:57:22;;;;;;;3.53;1.80;;;;;;;11.20;58.48;97211.56;5109064;28;20444;-68
2021/10/01 02:59:49;;;;;;;1.70;1.60;;;;;;;11.20;58.59;97211.56;5096158;28;20427;-67
2021/10/01 03:02:15;;;;;;;5.63;1.77;;;;;;;11.29;58.42;97198.50;5084268;28;20490;-67
2021/10/01 03:04:44;;;;;;;2.60;1.63;;;;;;;11.32;58.07;97196.38;5092448;28;20518;-66
2021/10/01 03:07:10;;;;;;;2.93;1.80;;;;;;;11.03;59.06;97207.22;5093600;28;20412;-65
2021/10/01 03:09:36;;;;;;;4.23;2.07;;;;;;;11.24;58.57;97195.50;5099923;28;20422;-68
2021/10/01 03:12:03;;;;;;;4.37;1.73;;;;;;;11.36;58.48;97197.72;5109063;28;20185;-68
2021/10/01 03:14:29;;;;;;;1.60;1.50;;;;;;;11.36;57.97;97196.88;5108319;28;20430;-68
2021/10/01 03:16:56;;;;;;;3.10;1.70;;;;;;;11.20;58.81;97206.34;5094531;28;20514;-67
2021/10/01 03:19:24;;;;;;;1.67;1.57;;;;;;;11.29;58.37;97203.75;5090442;28;20823;-67
2021/10/01 03:21:52;;;;;;;4.90;1.70;;;;;;;11.34;58.19;97193.59;5091818;28;20513;-66
2021/10/01 03:24:19;;;;;;;2.23;1.83;;;;;;;11.36;58.07;97189.00;5091179;28;20424;-68
2021/10/01 03:26:45;;;;;;;2.67;1.70;;;;;;;11.29;58.28;97193.25;5092012;28;20415;-67
2021/10/01 03:29:11;;;;;;;3.43;2.03;;;;;;;11.33;58.00;97184.91;5091822;28;20762;-68
2021/10/01 03:31:37;;;;;;;2.57;1.80;;;;;;;11.31;57.89;97180.78;5092388;28;20189;-66
2021/10/01 03:34:03;;;;;;;3.03;1.90;;;;;;;11.20;58.21;97187.13;5096692;28;20420;-67
2021/10/01 03:36:29;;;;;;;3.13;1.80;;;;;;;11.20;58.21;97189.75;5104565;28;20468;-66
2021/10/01 03:38:55;;;;;;;3.90;1.90;;;;;;;11.14;58.20;97199.06;5104670;28;20188;-67
2021/10/01 03:41:21;;;;;;;2.30;2.07;;;;;;;11.10;58.33;97189.88;5105129;28;20184;-66
2021/10/01 03:43:47;;;;;;;2.77;2.17;;;;;;;11.07;58.67;97185.75;5101548;28;20818;-67
2021/10/01 03:46:12;;;;;;;5.17;2.13;;;;;;;11.04;59.08;97182.63;5092030;28;20692;-66
2021/10/01 03:48:38;;;;;;;2.47;1.80;;;;;;;11.06;59.46;97183.31;5087375;28;20206;-66
2021/10/01 03:51:04;;;;;;;2.43;2.00;;;;;;;11.05;59.11;97187.72;5090546;28;20188;-66
2021/10/01 03:53:29;;;;;;;4.50;2.13;;;;;;;11.08;59.32;97186.59;5091327;28;20201;-66
2021/10/01 03:55:55;;;;;;;6.50;2.07;;;;;;;11.16;58.86;97172.69;5090141;28;20444;-65
2021/10/01 03:58:20;;;;;;;3.10;1.90;;;;;;;11.12;58.96;97169.56;5091206;28;20185;-66
2021/10/01 04:00:46;;;;;;;2.80;2.40;;;;;;;11.12;58.77;97177.41;5091378;28;20182;-65
2021/10/01 04:03:15;;;;;;;6.60;2.20;;;;;;;11.11;58.83;97178.41;5091031;28;20174;-67
2021/10/01 04:05:40;;;;;;;3.63;2.23;;;;;;;11.08;58.61;97173.47;5091551;28;20200;-66
2021/10/01 04:08:08;;;;;;;3.43;2.03;;;;;;;11.05;58.69;97160.69;5090970;28;20448;-67
2021/10/01 04:10:34;;;;;;;3.63;2.53;;;;;;;10.99;58.92;97171.78;5090905;28;20181;-67
2021/10/01 04:12:59;;;;;;;7.20;3.50;;;;;;;10.94;58.90;97172.25;5090463;28;20843;-67
2021/10/01 04:15:25;;;;;;;8.83;2.67;;;;;;;10.87;58.90;97166.78;5090289;28;20280;-66
2021/10/01 04:17:50;;;;;;;3.20;2.10;;;;;;;10.82;59.22;97165.63;5089794;28;20687;-66
2021/10/01 04:20:16;;;;;;;4.00;2.17;;;;;;;10.77;59.13;97167.91;5090997;28;20243;-67
2021/10/01 04:22:42;;;;;;;5.53;2.20;;;;;;;10.73;59.51;97162.13;5091063;28;20260;-66
2021/10/01 04:25:07;;;;;;;5.37;2.37;;;;;;;10.69;59.45;97161.63;5090787;28;20209;-67
2021/10/01 04:27:33;;;;;;;4.63;2.40;;;;;;;10.64;59.46;97155.19;5090644;28;20181;-67
2021/10/01 04:30:00;;;;;;;3.90;2.33;;;;;;;10.56;59.68;97151.56;5092469;28;20926;-67
2021/10/01 04:32:26;;;;;;;3.33;2.30;;;;;;;10.56;60.04;97155.94;5095362;28;20180;-67
2021/10/01 04:35:03;;;;;;;2.30;2.03;;;;;;;10.55;59.88;97160.38;5087989;28;20822;-65
2021/10/01 04:37:29;;;;;;;3.77;2.60;;;;;;;10.54;59.88;97152.66;5093656;28;20205;-66
2021/10/01 04:39:54;;;;;;;4.20;2.30;;;;;;;10.50;59.94;97152.16;5095041;28;20961;-66
2021/10/01 04:42:21;;;;;;;4.03;1.93;;;;;;;10.47;60.20;97157.69;5095077;28;20177;-67
2021/10/01 04:44:46;;;;;;;6.47;2.40;;;;;;;10.42;60.24;97159.97;5094931;28;21026;-67
2021/10/01 04:47:12;;;;;;;4.10;2.50;;;;;;;10.38;60.39;97156.00;5093534;28;20507;-67
2021/10/01 04:49:38;;;;;;;4.53;2.70;;;;;;;10.35;60.31;97167.56;5094587;28;20538;-66
2021/10/01 04:52:03;;;;;;;11.20;2.30;;;;;;;10.30;60.46;97162.78;5093331;28;20265;-67
2021/10/01 04:54:29;;;;;;;3.47;2.50;;;;;;;10.28;60.72;97158.66;5094462;28;20182;-66
2021/10/01 04:56:55;;;;;;;3.83;2.30;;;;;;;10.26;60.48;97160.63;5094661;28;20451;-66
2021/10/01 04:59:21;;;;;;;2.57;2.17;;;;;;;10.24;60.73;97166.00;5094511;28;20182;-67
2021/10/01 05:01:46;;;;;;;4.50;2.67;;;;;;;10.20;60.92;97167.28;5094439;28;20174;-66
2021/10/01 05:04:12;;;;;;;4.97;2.70;;;;;;;10.23;60.96;97166.97;5094285;28;20818;-64
2021/10/01 05:06:38;;;;;;;6.80;2.43;;;;;;;10.17;61.16;97167.59;5094971;28;20190;-67
2021/10/01 05:09:04;;;;;;;4.10;2.30;;;;;;;10.22;61.08;97165.31;5093194;28;20387;-67
2021/10/01 05:11:30;;;;;;;5.67;2.70;;;;;;;10.27;61.03;97162.28;5094073;28;20609;-68
2021/10/01 05:13:55;;;;;;;4.63;2.27;;;;;;;10.21;60.72;97163.69;5093758;28;20435;-67
2021/10/01 05:16:21;;;;;;;7.37;2.60;;;;;;;10.25;61.05;97164.22;5090241;28;20245;-66
2021/10/01 05:18:46;;;;;;;3.83;2.67;;;;;;;10.21;60.97;97166.28;5094512;28;20545;-65
2021/10/01 05:21:12;;;;;;;5.60;2.63;;;;;;;10.23;61.01;97161.72;5094781;28;20177;-65
2021/10/01 05:23:38;;;;;;;10.97;2.57;;;;;;;10.18;61.48;97168.41;5095936;28;20545;-67
2021/10/01 05:26:04;;;;;;;6.83;3.77;;;;;;;10.19;61.11;97165.66;5094993;28;20288;-68
2021/10/01 05:28:29;;;;;;;5.73;2.57;;;;;;;10.21;61.15;97168.09;5093317;28;20186;-66
2021/10/01 05:30:55;;;;;;;9.70;3.10;;;;;;;10.21;61.34;97163.69;5094386;28;20446;-66
2021/10/01 05:33:21;;;;;;;4.10;2.77;;;;;;;10.19;61.05;97167.44;5092781;28;20263;-67
2021/10/01 05:35:47;;;;;;;6.90;3.20;;;;;;;10.21;61.20;97163.69;5093712;28;20226;-67
2021/10/01 05:38:13;;;;;;;4.57;3.07;;;;;;;10.26;60.93;97158.81;5092831;28;20169;-66
2021/10/01 05:40:39;;;;;;;5.40;2.67;;;;;;;10.27;60.73;97160.47;5093771;28;20481;-67
2021/10/01 05:43:05;;;;;;;9.80;3.50;;;;;;;10.32;61.14;97167.06;5093852;28;20416;-65
2021/10/01 05:45:31;;;;;;;3.97;2.57;;;;;;;10.33;60.76;97160.84;5092294;28;20436;-65
2021/10/01 05:47:57;;;;;;;5.07;2.53;;;;;;;10.34;61.05;97163.31;5091743;28;20177;-67
2021/10/01 05:50:24;;;;;;;4.43;2.40;;;;;;;10.35;60.78;97153.63;5093990;28;20408;-66
2021/10/01 05:53:04;;;;;;;6.90;2.70;;;;;;;10.46;60.22;97145.56;5093787;28;20189;-65
2021/10/01 05:55:29;;;;;;;3.47;2.03;;;;;;;10.40;60.23;97151.44;5093706;28;20795;-66
2021/10/01 05:57:55;;;;;;;5.07;2.40;;;;;;;10.40;60.29;97147.00;5087366;28;20416;-65
2021/10/01 06:00:21;;;;;;;4.13;2.60;;;;;;;10.54;59.74;97145.63;5094215;28;20205;-65
2021/10/01 06:02:47;;;;;;;17.77;4.20;;;;;;;10.80;59.47;97152.69;5092855;28;20177;-65
2021/10/01 06:05:13;;;;;;;4.70;2.30;;;;;;;10.93;58.89;97146.19;5093371;28;20276;-67
2021/10/01 06:07:40;;;;;;;9.70;2.27;;;;;;;10.95;58.50;97152.09;5092102;28;20189;-64
2021/10/01 06:10:06;;;;;;;6.83;2.53;;;;;;;11.02;58.67;97153.94;5093288;28;20446;-66
2021/10/01 06:12:32;;;;;;;7.17;2.40;;;;;;;11.12;58.43;97158.25;5093186;28;20422;-66
2021/10/01 06:14:58;;;;;;;7.10;2.67;;;;;;;11.12;58.33;97148.56;5093046;28;20453;-67
2021/10/01 06:17:23;;;;;;;3.50;2.37;;;;;;;11.25;58.08;97153.38;5092970;28;20546;-66
2021/10/01 06:19:49;;;;;;;7.93;2.77;;;;;;;11.30;57.78;97147.66;5093240;28;20679;-67
2021/10/01 06:22:15;;;;;;;3.60;2.30;;;;;;;11.46;57.52;97146.91;5093500;28;20188;-67
2021/10/01 06:24:41;;;;;;;3.53;2.13;;;;;;;11.61;57.28;97145.31;5091615;28;20198;-66
2021/10/01 06:27:08;;;;;;;3.83;2.43;;;;;;;11.72;57.12;97141.53;5086876;28;20185;-67
2021/10/01 06:29:34;;;;;;;4.60;2.63;;;;;;;11.81;57.30;97139.75;5093036;28;20432;-67
2021/10/01 06:31:59;;;;;;;3.50;2.67;;;;;;;11.91;56.56;97137.78;5088569;28;20875;-66
2021/10/01 06:34:25;;;;;;;4.00;3.03;;;;;;;12.02;56.32;97144.56;5092794;28;20186;-66
2021/10/01 06:36:50;;;;;;;5.40;2.20;;;;;;;12.10;56.45;97144.56;5093088;28;20631;-66
2021/10/01 06:39:16;;;;;;;6.70;2.53;;;;;;;12.15;55.74;97141.47;5092469;28;20234;-66
2021/10/01 06:41:42;;;;;;;6.30;2.20;;;;;;;12.55;55.37;97141.63;5092168;28;20597;-66
2021/10/01 06:44:10;;;;;;;3.30;1.83;;;;;;;12.99;54.87;97137.75;5091995;28;20178;-67
2021/10/01 06:46:50;;;;;;;7.27;3.27;;;;;;;13.30;53.63;97140.44;5092512;28;20198;-66
2021/10/01 08:19:10;;;;;;;4.73;2.13;;;;;;;16.55;45.29;97119.19;5092354;28;20419;-67
2021/10/01 08:21:36;;;;;;;3.37;1.70;;;;;;;16.59;45.25;97117.81;5094822;28;20437;-66
2021/10/01 08:24:02;;;;;;;1.90;1.67;;;;;;;16.67;44.84;97111.56;5096036;28;20424;-66
2021/10/01 08:26:29;;;;;;;5.30;1.80;;;;;;;16.45;45.52;97105.50;5100697;28;20198;-68
2021/10/01 08:28:55;;;;;;;3.87;1.60;;;;;;;16.84;45.37;97104.94;5096253;28;20935;-66
2021/10/01 08:31:21;;;;;;;2.00;1.50;;;;;;;16.63;45.37;97108.47;5097265;28;20853;-65
2021/10/01 08:33:47;;;;;;;6.80;1.67;;;;;;;16.97;45.54;97106.88;5089238;28;20417;-67
2021/10/01 08:36:17;;;;;;;4.33;2.17;;;;;;;17.28;44.72;97100.28;5084959;28;20542;-65
2021/10/01 08:38:43;;;;;;;4.60;1.53;;;;;;;17.55;44.01;97103.03;5081506;28;20423;-67
2021/10/01 08:41:12;;;;;;;3.90;1.70;;;;;;;17.21;45.27;97099.44;5085971;28;20480;-65
2021/10/01 08:43:39;;;;;;;2.03;1.50;;;;;;;17.42;44.54;97105.63;5090361;28;20420;-66
2021/10/01 08:46:05;;;;;;;4.37;1.47;;;;;;;17.91;43.79;97099.22;5090395;28;20443;-67
2021/10/01 08:48:31;;;;;;;1.60;1.30;;;;;;;17.71;44.13;97098.38;5091474;28;20424;-65
2021/10/01 08:50:57;;;;;;;2.90;1.60;;;;;;;17.93;43.87;97086.59;5087515;28;20511;-70
2021/10/01 08:53:22;;;;;;;3.90;1.90;;;;;;;18.10;43.48;97091.53;5091406;28;20192;-65
2021/10/01 08:55:49;;;;;;;2.87;1.60;;;;;;;18.31;43.34;97087.03;5091342;28;20558;-65
2021/10/01 08:58:15;;;;;;;7.80;1.57;;;;;;;18.55;42.71;97080.31;5080593;28;20193;-69
2021/10/01 09:00:41;;;;;;;2.70;1.13;;;;;;;18.00;42.89;97077.88;5080148;28;20811;-67
2021/10/01 09:03:07;;;;;;;3.63;1.50;;;;;;;18.39;42.79;97079.69;5087443;28;20178;-65
2021/10/01 09:05:33;;;;;;;5.10;1.50;;;;;;;18.32;42.59;97072.75;5088799;28;20198;-67
2021/10/01 09:08:18;;;;;;;3.27;1.30;;;;;;;18.53;42.41;97069.88;5091168;28;20477;-66
2021/10/01 09:11:00;;;;;;;2.03;1.40;;;;;;;18.23;42.56;97078.28;5088212;28;20186;-67
2021/10/01 09:13:26;;;;;;;3.50;1.67;;;;;;;18.62;42.44;97061.72;5081012;28;20460;-66
2021/10/01 09:16:05;;;;;;;6.03;2.33;;;;;;;18.72;42.29;97059.44;5041788;28;20536;-67
2021/10/01 09:18:32;;;;;;;7.13;3.43;;;;;;;18.93;42.09;97065.50;5094427;28;20412;-66
2021/10/01 09:21:07;;;;;;;3.87;2.00;;;;;;;19.26;41.11;97056.66;5094510;28;20454;-68
2021/10/01 09:23:36;;;;;;;3.73;2.10;;;;;;;19.38;40.65;97049.63;5093148;28;20485;-66
2021/10/01 09:26:10;;;;;;;2.73;1.50;;;;;;;19.19;41.25;97052.16;5095399;28;20443;-68
2021/10/01 09:28:58;;;;;;;5.73;1.50;;;;;;;19.47;40.87;97043.03;5089870;28;20577;-66
2021/10/01 09:31:31;;;;;;;2.87;1.70;;;;;;;19.39;41.04;97035.31;5095264;28;20461;-67
2021/10/01 09:33:57;;;;;;;3.20;1.80;;;;;;;19.68;40.71;97038.41;5094821;28;20513;-67
2021/10/01 09:36:23;;;;;;;7.00;1.50;;;;;;;19.52;40.66;97034.41;5095675;28;20509;-67
2021/10/01 09:38:48;;;;;;;4.50;1.57;;;;;;;19.84;40.91;97034.44;5094444;28;20424;-65
2021/10/01 09:41:17;;;;;;;2.57;1.40;;;;;;;19.84;40.78;97029.09;5093848;28;20181;-67
2021/10/01 09:43:42;;;;;;;2.13;1.30;;;;;;;20.04;40.40;97028.97;5095109;28;20253;-67
2021/10/01 09:46:12;;;;;;;2.10;1.33;;;;;;;20.46;39.90;97027.56;5095623;28;21035;-65
2021/10/01 09:48:39;;;;;;;10.03;1.97;;;;;;;20.68;39.11;97018.13;5093215;28;20205;-66
2021/10/01 09:51:14;;;;;;;2.13;1.20;;;;;;;20.76;39.16;97014.38;5094892;28;21002;-66
2021/10/01 09:53:48;;;;;;;3.67;1.20;;;;;;;20.50;39.49;97015.47;5094946;28;20431;-67
2021/10/01 09:56:30;;;;;;;4.00;1.50;;;;;;;20.38;39.57;97018.84;5086737;28;20455;-68
2021/10/01 09:59:07;;;;;;;11.70;4.00;;;;;;;19.68;40.40;97014.47;5091467;28;20424;-67
2021/10/01 10:01:33;;;;;;;3.13;1.97;;;;;;;19.73;40.43;97008.50;5093337;28;20416;-68
2021/10/01 10:04:13;;;;;;;10.47;4.37;;;;;;;19.80;40.31;97003.97;5092391;28;20812;-67
2021/10/01 10:06:44;;;;;;;12.30;4.60;;;;;;;19.87;40.04;96999.44;5093226;28;20470;-69
2021/10/01 10:09:09;;;;;;;3.53;1.67;;;;;;;20.38;38.67;96994.91;5094049;28;20542;-67
2021/10/01 10:11:42;;;;;;;2.20;1.50;;;;;;;20.15;39.06;96992.06;5091861;28;20466;-67
2021/10/01 10:14:10;;;;;;;3.70;1.40;;;;;;;20.46;39.18;96987.66;5073426;28;20198;-66
2021/10/01 10:16:36;;;;;;;1.90;1.30;;;;;;;20.83;38.12;96977.84;5089997;28;20498;-65
2021/10/01 10:19:06;;;;;;;5.50;1.60;;;;;;;20.91;37.51;96978.56;5092807;28;20919;-67
2021/10/01 10:21:32;;;;;;;2.43;1.60;;;;;;;20.87;37.78;96980.88;5093718;28;20435;-67
2021/10/01 10:23:57;;;;;;;3.93;1.30;;;;;;;20.81;37.53;96977.25;5088340;28;20427;-67
2021/10/01 10:26:24;;;;;;;2.10;1.30;;;;;;;20.87;37.65;96975.53;5083450;28;20336;-68
2021/10/01 10:28:52;;;;;;;2.30;1.40;;;;;;;20.97;37.54;96975.81;5089869;28;20186;-66
2021/10/01 10:31:19;;;;;;;4.60;1.27;;;;;;;20.62;38.18;96972.94;5093447;28;20420;-66
2021/10/01 10:33:50;;;;;;;2.67;1.47;;;;;;;21.12;37.75;96971.94;5089548;28;20415;-67
2021/10/01 10:36:33;;;;;;;6.40;3.63;;;;;;;21.53;36.52;96973.00;5084936;28;20466;-68
2021/10/01 10:39:33;;;;;;;4.07;1.53;;;;;;;21.74;36.23;96971.66;5093078;28;20424;-66
2021/10/01 10:41:59;;;;;;;2.00;1.00;;;;;;;21.42;36.48;96960.47;5089579;28;20419;-66
2021/10/01 10:44:41;;;;;;;1.93;1.03;;;;;;;21.90;35.57;96972.03;5092445;28;20475;-65
2021/10/01 10:47:06;;;;;;;2.40;1.30;;;;;;;22.06;35.29;96970.53;5093136;28;20295;-66
2021/10/01 10:49:32;;;;;;;6.23;1.00;;;;;;;21.83;35.76;96966.81;5091576;28;20419;-67
2021/10/01 10:51:58;;;;;;;2.27;1.20;;;;;;;22.21;34.81;96964.75;5092360;28;20217;-65
2021/10/01 10:54:32;;;;;;;6.43;1.40;;;;;;;22.46;34.64;96961.84;5093482;28;20543;-65
2021/10/01 10:57:15;;;;;;;5.47;1.30;;;;;;;21.90;35.61;96956.88;5088746;28;20258;-67
2021/10/01 10:59:53;;;;;;;1.90;1.13;;;;;;;22.36;34.86;96954.41;5093322;28;20779;-67
2021/10/01 11:02:29;;;;;;;2.23;1.60;;;;;;;22.66;34.46;96945.44;5092158;28;20423;-66
2021/10/01 11:05:22;;;;;;;2.10;1.30;;;;;;;22.24;34.45;96940.28;5092860;28;20898;-66
2021/10/01 11:07:54;;;;;;;3.97;1.40;;;;;;;22.45;34.55;96946.88;5092633;28;20771;-66
2021/10/01 11:10:39;;;;;;;2.60;1.50;;;;;;;23.02;33.50;96940.78;5086523;28;20431;-67
2021/10/01 11:13:21;;;;;;;1.93;1.27;;;;;;;23.17;32.74;96932.25;5092759;28;20944;-66
2021/10/01 11:16:08;;;;;;;6.20;1.17;;;;;;;23.41;32.94;96926.81;5092638;28;20454;-65
2021/10/01 11:18:46;;;;;;;2.70;1.30;;;;;;;23.77;31.90;96938.06;5086707;28;20428;-65
2021/10/01 11:21:27;;;;;;;3.07;1.20;;;;;;;23.05;32.66;96934.16;5091622;28;20736;-67
2021/10/01 11:24:01;;;;;;;4.90;1.30;;;;;;;23.49;31.82;96922.09;5092668;28;20419;-68
2021/10/01 11:26:30;;;;;;;3.57;1.83;;;;;;;23.78;31.18;96920.97;5094528;28;20443;-66
2021/10/01 11:28:55;;;;;;;2.70;1.40;;;;;;;23.98;30.68;96917.00;5089679;28;20430;-67
2021/10/01 11:31:21;;;;;;;4.07;1.60;;;;;;;24.02;30.13;96907.44;5092446;28;20782;-66
2021/10/01 11:33:48;;;;;;;3.23;1.63;;;;;;;24.38;30.27;96907.09;5091261;28;20216;-66
2021/10/01 11:36:14;;;;;;;2.53;1.03;;;;;;;24.53;29.56;96895.75;5083999;28;20228;-67
2021/10/01 11:38:39;;;;;;;1.80;1.40;;;;;;;24.97;29.29;96897.59;5091030;28;20906;-67
2021/10/01 11:41:15;;;;;;;1.43;1.33;;;;;;;24.49;29.12;96890.09;5089231;28;20178;-64
2021/10/01 11:44:03;;;;;;;3.73;1.93;;;;;;;24.64;28.44;96884.09;5088141;28;20269;-66
2021/10/01 11:46:32;;;;;;;5.10;1.00;;;;;;;24.77;28.44;96882.91;5085588;28;20477;-68
2021/10/01 11:48:58;;;;;;;2.80;1.90;;;;;;;25.15;28.34;96877.66;5092480;28;20424;-66
2021/10/01 11:51:24;;;;;;;2.90;1.33;;;;;;;24.85;28.44;96878.97;5093065;28;20428;-67
2021/10/01 11:54:04;;;;;;;3.23;1.40;;;;;;;24.95;28.55;96872.91;5092459;28;20430;-64
2021/10/01 11:56:30;;;;;;;2.20;1.30;;;;;;;25.40;27.88;96873.59;5072293;28;20266;-66
2021/10/01 11:58:55;;;;;;;1.73;1.00;;;;;;;25.50;26.81;96868.31;5089516;28;20697;-67
2021/10/01 12:01:21;;;;;;;2.90;2.30;;;;;;;25.80;26.79;96853.50;5091684;28;20190;-67
2021/10/01 12:03:48;;;;;;;1.57;1.10;;;;;;;26.15;25.87;96854.78;5092068;28;20238;-65
2021/10/01 12:06:19;;;;;;;2.97;1.20;;;;;;;25.77;25.66;96851.34;5083837;28;20205;-66
2021/10/01 12:08:52;;;;;;;2.97;1.20;;;;;;;26.49;24.16;96848.22;5091795;28;20420;-67
2021/10/01 12:11:25;;;;;;;2.30;1.93;;;;;;;26.45;24.62;96847.94;5084491;28;20772;-65
2021/10/01 12:13:51;;;;;;;5.53;1.57;;;;;;;26.16;24.54;96842.97;5091889;28;20427;-65
2021/10/01 12:16:16;;;;;;;3.23;1.40;;;;;;;26.15;25.16;96843.25;5090320;28;20516;-65
2021/10/01 12:19:02;;;;;;;3.33;1.23;;;;;;;26.16;24.88;96834.09;5091709;28;20690;-66
2021/10/01 12:21:30;;;;;;;1.67;1.00;;;;;;;25.47;26.04;96830.47;5088298;28;20205;-67
2021/10/01 12:24:00;;;;;;;4.70;2.10;;;;;;;25.89;25.46;96837.72;5104632;28;20511;-67
2021/10/01 12:26:39;;;;;;;3.33;1.10;;;;;;;26.08;25.54;96832.72;5102130;28;20901;-65
2021/10/01 12:29:19;;;;;;;1.83;1.10;;;;;;;25.45;25.77;96834.22;5102996;28;20412;-66
2021/10/01 12:31:47;;;;;;;2.63;1.30;;;;;;;26.39;25.21;96824.81;5103838;28;20422;-66
2021/10/01 12:34:25;;;;;;;1.87;1.33;;;;;;;26.88;25.25;96823.59;5098787;28;20423;-65
2021/10/01 12:36:58;;;;;;;4.10;1.83;;;;;;;27.02;23.94;96823.88;5091342;28;20962;-65
2021/10/01 12:39:25;;;;;;;2.70;1.23;;;;;;;26.92;23.96;96821.19;5088732;28;20446;-66
2021/10/01 12:42:01;;;;;;;5.13;1.27;;;;;;;26.86;24.18;96814.16;5086639;28;20435;-66
2021/10/01 12:44:28;;;;;;;7.93;2.90;;;;;;;26.91;24.90;96804.22;5091257;28;20884;-64
2021/10/01 12:46:55;;;;;;;4.60;2.03;;;;;;;27.31;24.48;96817.97;5091312;28;20420;-65
2021/10/01 12:49:24;;;;;;;1.63;1.20;;;;;;;27.61;23.79;96808.25;5091092;28;20431;-65
2021/10/01 12:52:04;;;;;;;2.87;1.20;;;;;;;27.32;24.30;96806.13;5094735;28;20424;-66
2021/10/01 12:54:43;;;;;;;6.30;1.57;;;;;;;26.79;25.36;96807.19;5095058;28;20441;-66
2021/10/01 12:57:15;;;;;;;2.40;1.50;;;;;;;26.65;25.27;96814.13;5089369;28;20478;-65
2021/10/01 12:59:51;;;;;;;7.50;1.50;;;;;;;26.88;24.80;96810.16;5094428;28;20423;-67
2021/10/01 13:02:20;;;;;;;1.90;1.70;;;;;;;26.42;25.75;96799.28;5087179;28;20753;-66
2021/10/01 13:04:58;;;;;;;1.87;1.20;;;;;;;25.83;27.17;96804.69;5094724;28;20915;-65
2021/10/01 13:07:29;;;;;;;2.70;1.33;;;;;;;26.24;26.85;96795.19;5094151;28;20420;-66
2021/10/01 13:09:57;;;;;;;2.47;1.43;;;;;;;27.41;25.55;96791.03;5094829;28;20800;-67
2021/10/01 13:12:44;;;;;;;3.60;1.67;;;;;;;27.51;25.78;96778.69;5094331;28;20529;-67